Time;durP1;ratioP1;P1;durP2;ratioP2;P2;SDS_P1;SDS_P2;PMS_P1;PMS_P2;Temp;Humidity;BMP_temperature;BMP_pressure;BME280_temperature;BME280_humidity;BME280_pressure;Samples;Min_cycle;Max_cycle;Signal;HPM_P1;HPM_P2
2022/12/30 00:01:06;;;;;;;2.20;0.70;;;;;;;7.13;100.00;100251.50;4980614;28;20259;-71
2022/12/30 00:03:33;;;;;;;4.80;1.13;;;;;;;7.06;100.00;100241.25;4985145;28;20395;-73
2022/12/30 00:05:59;;;;;;;0.90;0.83;;;;;;;6.96;100.00;100235.38;4984857;28;20805;-74
2022/12/30 00:11:09;;;;;;;1.27;0.77;;;;;;;6.85;100.00;100235.56;4975192;28;20213;-73
2022/12/30 00:33:09;;;;;;;1.53;0.80;;;;;;;6.65;100.00;100267.00;4983558;28;20208;-73
2022/12/30 00:35:38;;;;;;;1.30;0.80;;;;;;;6.57;100.00;100274.00;4986849;28;20598;-73
2022/12/30 00:38:04;;;;;;;2.73;0.80;;;;;;;6.59;100.00;100273.09;4985832;28;20832;-74
2022/12/30 00:40:31;;;;;;;1.30;1.10;;;;;;;6.58;100.00;100276.59;4982502;28;20209;-73
2022/12/30 00:43:08;;;;;;;1.10;1.00;;;;;;;6.60;100.00;100274.81;4985569;28;20212;-73
2022/12/30 00:45:37;;;;;;;1.90;0.90;;;;;;;6.66;100.00;100279.03;4984048;28;20202;-73
2022/12/30 00:56:17;;;;;;;2.23;0.70;;;;;;;6.68;100.00;100279.88;4981131;28;20229;-71
2022/12/30 00:58:43;;;;;;;1.00;0.83;;;;;;;6.70;100.00;100293.69;4986168;28;20232;-71
2022/12/30 01:01:10;;;;;;;0.90;0.63;;;;;;;6.69;100.00;100301.47;4981263;28;20213;-72
2022/12/30 01:03:37;;;;;;;1.63;0.90;;;;;;;6.67;100.00;100298.91;4984675;28;20884;-73
2022/12/30 01:06:07;;;;;;;5.07;0.90;;;;;;;6.61;100.00;100299.88;4984736;28;20598;-72
2022/12/30 01:08:34;;;;;;;1.03;0.87;;;;;;;6.64;100.00;100306.72;4986989;28;20228;-73
2022/12/30 01:11:05;;;;;;;1.00;0.70;;;;;;;6.66;100.00;100307.53;4981322;28;20201;-74
2022/12/30 01:13:32;;;;;;;1.07;0.60;;;;;;;6.64;100.00;100320.53;4981771;28;20202;-73
2022/12/30 01:15:58;;;;;;;1.23;0.77;;;;;;;6.64;100.00;100315.34;4981931;28;20206;-74
2022/12/30 01:18:25;;;;;;;1.27;0.70;;;;;;;6.68;100.00;100325.66;4985526;28;20283;-73
2022/12/30 01:20:53;;;;;;;1.03;0.93;;;;;;;6.64;100.00;100324.84;4981129;28;20198;-73
2022/12/30 01:23:19;;;;;;;1.17;0.70;;;;;;;6.61;100.00;100322.31;4984100;28;20211;-73
2022/12/30 01:25:45;;;;;;;2.83;1.30;;;;;;;6.61;100.00;100322.31;4985025;28;20204;-72
2022/12/30 01:28:12;;;;;;;1.23;0.77;;;;;;;6.58;100.00;100319.78;4982008;28;20332;-73
2022/12/30 01:30:38;;;;;;;0.80;0.80;;;;;;;6.55;100.00;100331.03;4982476;28;20670;-72
2022/12/30 01:33:04;;;;;;;4.27;1.07;;;;;;;6.54;100.00;100339.66;4982668;28;20205;-72
2022/12/30 01:35:32;;;;;;;2.37;0.83;;;;;;;6.57;100.00;100344.81;4981811;28;20582;-73
2022/12/30 01:38:00;;;;;;;1.77;1.10;;;;;;;6.53;100.00;100348.31;4983206;28;20251;-74
2022/12/30 01:40:28;;;;;;;2.07;0.93;;;;;;;6.51;100.00;100350.09;4980822;28;20300;-72
2022/12/30 01:42:54;;;;;;;2.13;1.00;;;;;;;6.51;100.00;100355.25;4983862;28;20193;-74
2022/12/30 01:45:22;;;;;;;0.70;0.70;;;;;;;6.55;100.00;100364.69;4981452;28;20285;-73
2022/12/30 01:47:54;;;;;;;2.63;0.90;;;;;;;6.54;100.00;100356.94;4980676;28;20275;-73
2022/12/30 01:50:26;;;;;;;3.23;1.00;;;;;;;6.51;100.00;100357.84;4982059;28;20595;-74
2022/12/30 01:52:57;;;;;;;1.87;0.80;;;;;;;6.62;100.00;100357.69;4993358;28;20583;-74
2022/12/30 01:55:28;;;;;;;0.70;0.70;;;;;;;6.60;100.00;100360.31;4977995;28;20226;-74
2022/12/30 01:57:56;;;;;;;1.53;0.70;;;;;;;6.54;100.00;100354.34;4979840;28;20217;-74
2022/12/30 02:00:22;;;;;;;0.77;0.70;;;;;;;6.50;100.00;100363.06;4984034;28;20533;-74
2022/12/30 02:02:50;;;;;;;2.83;1.00;;;;;;;6.49;100.00;100367.38;4983464;28;20236;-73
2022/12/30 02:05:20;;;;;;;3.03;0.90;;;;;;;6.48;100.00;100378.59;4986672;28;20198;-74
2022/12/30 02:07:50;;;;;;;2.40;1.20;;;;;;;6.49;100.00;100379.47;4981707;28;20215;-73
2022/12/30 02:10:20;;;;;;;2.03;0.90;;;;;;;6.43;100.00;100381.25;4982806;28;20220;-74
2022/12/30 02:12:47;;;;;;;2.20;0.63;;;;;;;6.36;100.00;100387.38;4986746;28;20201;-72
2022/12/30 02:15:14;;;;;;;0.90;0.80;;;;;;;6.36;100.00;100396.91;4985029;28;20629;-72
2022/12/30 02:17:54;;;;;;;1.43;0.60;;;;;;;6.39;100.00;100399.47;4982342;28;20292;-72
2022/12/30 02:20:48;;;;;;;2.00;0.90;;;;;;;6.33;100.00;100396.94;4984544;28;20500;-72
2022/12/30 02:23:33;;;;;;;1.30;0.93;;;;;;;6.25;100.00;100402.22;4987293;28;20209;-72
2022/12/30 02:26:19;;;;;;;2.33;0.90;;;;;;;6.28;100.00;100409.94;4985899;28;20199;-73
2022/12/30 02:29:13;;;;;;;1.80;0.70;;;;;;;6.22;100.00;100405.69;4980950;28;20241;-73
2022/12/30 02:31:52;;;;;;;0.97;0.80;;;;;;;6.24;100.00;100413.44;4982582;28;20220;-74
2022/12/30 02:34:30;;;;;;;3.30;0.67;;;;;;;6.18;100.00;100409.19;4985838;28;20240;-74
2022/12/30 02:37:07;;;;;;;4.93;0.90;;;;;;;6.15;100.00;100422.16;4983076;28;20582;-73
2022/12/30 02:39:38;;;;;;;3.67;1.17;;;;;;;6.14;100.00;100417.00;4979968;28;20228;-72
2022/12/30 02:44:59;;;;;;;1.83;0.87;;;;;;;6.18;100.00;100434.22;4981333;28;20202;-73
2022/12/30 02:47:35;;;;;;;1.37;0.97;;;;;;;6.12;100.00;100445.50;4982513;28;20669;-73
2022/12/30 02:52:52;;;;;;;1.33;0.90;;;;;;;6.03;100.00;100451.63;4977371;28;20217;-73
2022/12/30 02:55:19;;;;;;;2.20;1.07;;;;;;;6.01;100.00;100452.50;4979457;28;20280;-74
2022/12/30 02:57:46;;;;;;;2.43;1.03;;;;;;;5.94;100.00;100459.44;4975042;28;20574;-74
2022/12/30 03:06:43;;;;;;;2.10;1.03;;;;;;;5.93;100.00;100462.91;4984352;28;20209;-73
2022/12/30 03:09:18;;;;;;;3.23;0.87;;;;;;;5.87;100.00;100469.00;4984364;28;20509;-73
2022/12/30 03:11:53;;;;;;;5.70;0.83;;;;;;;5.83;100.00;100466.47;4980924;28;20200;-72
2022/12/30 03:14:25;;;;;;;2.80;1.07;;;;;;;5.79;100.00;100468.22;4982516;28;20252;-72
2022/12/30 03:16:58;;;;;;;3.07;0.97;;;;;;;5.78;100.00;100465.63;4978185;28;20209;-72
2022/12/30 03:19:30;;;;;;;2.67;0.97;;;;;;;5.74;100.00;100467.41;4980259;28;20233;-73
2022/12/30 03:21:57;;;;;;;2.60;1.00;;;;;;;5.69;100.00;100461.41;4980132;28;20201;-73
2022/12/30 03:27:16;;;;;;;5.60;1.20;;;;;;;5.75;100.00;100479.47;4983711;28;20356;-73
2022/12/30 03:29:48;;;;;;;2.37;1.00;;;;;;;5.74;100.00;100474.31;4989851;28;20235;-74
2022/12/30 03:32:16;;;;;;;1.90;0.93;;;;;;;5.72;100.00;100474.31;4984540;28;20308;-73
2022/12/30 03:34:44;;;;;;;3.77;0.80;;;;;;;5.74;100.00;100479.50;4980878;28;20231;-73
2022/12/30 03:37:16;;;;;;;2.37;0.80;;;;;;;5.74;100.00;100488.09;4972776;28;20401;-74
2022/12/30 03:39:48;;;;;;;1.63;0.70;;;;;;;5.84;100.00;100487.16;4988488;28;20602;-71
2022/12/30 03:42:15;;;;;;;1.87;0.90;;;;;;;5.82;100.00;100493.19;4985598;28;20204;-74
2022/12/30 03:44:43;;;;;;;2.60;0.97;;;;;;;5.79;100.00;100496.69;4989630;28;20197;-73
2022/12/30 03:47:12;;;;;;;3.20;0.93;;;;;;;5.77;100.00;100489.78;4985049;28;20216;-73
2022/12/30 03:49:41;;;;;;;1.20;0.60;;;;;;;5.81;100.00;100496.66;4988421;28;20699;-74
2022/12/30 03:52:08;;;;;;;1.00;0.80;;;;;;;5.84;100.00;100500.09;4984522;28;20220;-73
2022/12/30 03:54:35;;;;;;;7.80;1.10;;;;;;;5.86;100.00;100500.94;4982732;28;20562;-74
2022/12/30 03:57:01;;;;;;;2.70;1.03;;;;;;;5.83;100.00;100494.91;4986552;28;20574;-73
2022/12/30 03:59:28;;;;;;;1.83;0.83;;;;;;;5.74;100.00;100490.69;4988984;28;20228;-73
2022/12/30 04:01:54;;;;;;;2.03;1.10;;;;;;;5.64;100.00;100497.66;4986529;28;20605;-73
2022/12/30 04:04:21;;;;;;;2.33;0.97;;;;;;;5.57;100.00;100505.47;4980839;28;20209;-73
2022/12/30 04:06:47;;;;;;;7.00;1.17;;;;;;;5.44;100.00;100497.81;4984145;28;20201;-73
2022/12/30 04:09:15;;;;;;;3.23;0.80;;;;;;;5.34;100.00;100506.50;4987705;28;20263;-73
2022/12/30 04:11:41;;;;;;;1.13;0.70;;;;;;;5.26;100.00;100508.28;4984180;28;20200;-73
2022/12/30 04:14:07;;;;;;;1.83;0.80;;;;;;;5.20;100.00;100506.56;4984766;28;20225;-73
2022/12/30 04:16:34;;;;;;;2.70;0.97;;;;;;;5.12;100.00;100504.03;4986430;28;20229;-73
2022/12/30 04:19:00;;;;;;;3.90;1.33;;;;;;;5.08;100.00;100519.56;4983418;28;20243;-74
2022/12/30 04:21:28;;;;;;;2.60;1.00;;;;;;;5.02;100.00;100522.19;4984853;28;20678;-74
2022/12/30 04:23:54;;;;;;;1.43;0.70;;;;;;;4.93;100.00;100518.78;4983889;28;20296;-73
2022/12/30 04:26:22;;;;;;;0.77;0.67;;;;;;;4.86;100.00;100521.41;4981251;28;20216;-72
2022/12/30 04:28:49;;;;;;;2.53;1.03;;;;;;;4.84;100.00;100520.56;4981774;28;20236;-72
2022/12/30 04:31:15;;;;;;;3.00;1.07;;;;;;;4.89;100.00;100527.41;4983717;28;20201;-73
2022/12/30 04:33:41;;;;;;;3.00;0.70;;;;;;;4.86;100.00;100530.00;4977195;28;20965;-73
2022/12/30 04:36:09;;;;;;;1.53;0.63;;;;;;;4.85;100.00;100535.19;4982886;28;20309;-74
2022/12/30 04:38:35;;;;;;;2.03;1.07;;;;;;;4.86;100.00;100534.31;4982536;28;20225;-72
2022/12/30 04:41:02;;;;;;;2.37;0.90;;;;;;;4.82;100.00;100542.94;4978891;28;20204;-71
2022/12/30 04:43:30;;;;;;;0.83;0.77;;;;;;;4.70;100.00;100549.88;4981410;28;20678;-73
2022/12/30 04:45:56;;;;;;;3.73;1.27;;;;;;;4.68;100.00;100548.16;4981157;28;20202;-73
2022/12/30 04:48:23;;;;;;;4.20;1.10;;;;;;;4.64;100.00;100556.78;4984949;28;20646;-73
2022/12/30 04:50:49;;;;;;;3.80;0.90;;;;;;;4.64;100.00;100559.34;4980547;28;20196;-73
2022/12/30 04:53:15;;;;;;;2.30;0.70;;;;;;;4.60;100.00;100553.34;4988713;28;20233;-73
2022/12/30 04:55:42;;;;;;;2.80;1.30;;;;;;;4.64;100.00;100559.34;4989020;28;20838;-73
2022/12/30 04:58:08;;;;;;;5.47;1.00;;;;;;;4.59;100.00;100569.72;4986240;28;20236;-73
2022/12/30 05:00:36;;;;;;;3.53;0.87;;;;;;;4.53;100.00;100574.88;4993963;28;20215;-72
2022/12/30 05:03:02;;;;;;;2.20;0.90;;;;;;;4.45;100.00;100571.44;4977147;28;20768;-73
2022/12/30 05:05:29;;;;;;;6.50;1.17;;;;;;;4.35;100.00;100583.53;4986686;28;20310;-73
2022/12/30 05:07:55;;;;;;;2.93;0.80;;;;;;;4.31;100.00;100585.25;4986108;28;20231;-73
2022/12/30 05:10:22;;;;;;;3.47;0.80;;;;;;;4.25;100.00;100574.91;4985162;28;20208;-73
2022/12/30 05:12:48;;;;;;;2.63;0.60;;;;;;;4.31;100.00;100572.34;4983238;28;20197;-72
2022/12/30 05:15:16;;;;;;;2.17;0.73;;;;;;;4.28;100.00;100577.50;4984044;28;20228;-72
2022/12/30 05:17:44;;;;;;;2.30;0.77;;;;;;;4.18;100.00;100583.53;4983769;28;20209;-74
2022/12/30 05:20:10;;;;;;;1.10;0.90;;;;;;;4.17;100.00;100584.41;4990183;28;20206;-71
2022/12/30 05:22:37;;;;;;;3.87;1.30;;;;;;;4.23;100.00;100575.78;4983435;28;20573;-73
2022/12/30 05:27:47;;;;;;;3.63;0.93;;;;;;;4.11;100.00;100597.28;4979281;28;20220;-73
2022/12/30 05:30:14;;;;;;;3.10;0.60;;;;;;;4.01;100.00;100605.88;5024165;22;20740;-71
2022/12/30 05:32:40;;;;;;;1.50;0.83;;;;;;;3.94;100.00;100605.91;5001464;28;20201;-72
2022/12/30 05:35:09;;;;;;;1.67;0.73;;;;;;;3.89;100.00;100602.44;5003239;28;20224;-71
2022/12/30 05:37:35;;;;;;;3.83;1.13;;;;;;;3.84;100.00;100609.31;4989495;28;20472;-71
2022/12/30 05:40:02;;;;;;;2.20;0.90;;;;;;;3.79;100.00;100603.28;4997587;28;20223;-71
2022/12/30 05:42:30;;;;;;;3.37;0.83;;;;;;;3.77;100.00;100602.44;5001374;28;20207;-71
2022/12/30 05:44:56;;;;;;;3.40;1.07;;;;;;;3.72;100.00;100609.31;5001135;28;20197;-72
2022/12/30 05:47:22;;;;;;;2.03;0.93;;;;;;;3.77;100.00;100611.03;5003846;28;20208;-71
2022/12/30 05:49:49;;;;;;;1.40;0.60;;;;;;;3.71;100.00;100615.31;5006138;28;20226;-72
2022/12/30 05:52:17;;;;;;;4.90;1.10;;;;;;;3.70;100.00;100619.63;5003011;28;20335;-72
2022/12/30 05:54:44;;;;;;;4.20;0.93;;;;;;;3.71;100.00;100621.34;5004538;28;20282;-71
2022/12/30 05:57:11;;;;;;;8.97;0.90;;;;;;;3.62;100.00;100623.03;4995475;28;20580;-71
2022/12/30 05:59:37;;;;;;;5.80;1.10;;;;;;;3.58;100.00;100624.75;5001036;28;20622;-71
2022/12/30 06:02:03;;;;;;;1.43;0.73;;;;;;;3.55;100.00;100635.03;5000184;28;20906;-71
2022/12/30 06:04:30;;;;;;;2.73;0.80;;;;;;;3.51;100.00;100620.44;5001397;28;20205;-71
2022/12/30 06:06:56;;;;;;;3.73;0.80;;;;;;;3.43;100.00;100620.41;4999888;28;20217;-72
2022/12/30 06:09:24;;;;;;;5.50;1.37;;;;;;;3.34;100.00;100628.09;4997932;28;20213;-71
2022/12/30 06:11:50;;;;;;;6.87;1.73;;;;;;;3.42;100.00;100634.16;4995301;28;20208;-72
2022/12/30 06:14:17;;;;;;;2.93;1.23;;;;;;;3.46;100.00;100635.88;4999898;28;20197;-71
2022/12/30 06:16:44;;;;;;;4.80;1.20;;;;;;;3.44;100.00;100637.59;5001682;28;20689;-71
2022/12/30 06:19:10;;;;;;;7.13;1.30;;;;;;;3.51;100.00;100649.63;5004719;28;20220;-71
2022/12/30 06:21:37;;;;;;;6.73;1.73;;;;;;;3.51;100.00;100644.47;5005192;28;20398;-71
2022/12/30 06:24:04;;;;;;;7.10;1.23;;;;;;;3.44;100.00;100645.31;4999604;28;20205;-71
2022/12/30 06:26:31;;;;;;;3.33;0.90;;;;;;;3.42;100.00;100653.03;5001940;28;20220;-71
2022/12/30 06:28:58;;;;;;;2.57;0.83;;;;;;;3.42;100.00;100658.19;5008695;28;20230;-71
2022/12/30 06:31:24;;;;;;;2.10;0.80;;;;;;;3.41;100.00;100659.06;4999038;28;20207;-71
2022/12/30 06:33:50;;;;;;;3.70;1.00;;;;;;;3.47;100.00;100670.28;5001764;28;20207;-72
2022/12/30 06:36:17;;;;;;;5.33;1.00;;;;;;;3.52;100.00;100673.72;4985588;28;20215;-71
2022/12/30 06:38:43;;;;;;;6.33;1.37;;;;;;;3.55;100.00;100669.44;4998614;28;20770;-72
2022/12/30 06:41:10;;;;;;;4.70;1.03;;;;;;;3.53;100.00;100668.53;5002663;28;20288;-71
2022/12/30 06:43:38;;;;;;;5.77;1.10;;;;;;;3.47;100.00;100671.13;5003831;28;20208;-71
2022/12/30 06:46:05;;;;;;;2.53;1.00;;;;;;;3.44;100.00;100678.84;4999982;28;21339;-71
2022/12/30 06:48:31;;;;;;;1.77;0.90;;;;;;;3.39;100.00;100688.25;4999431;28;20334;-71
2022/12/30 06:51:02;;;;;;;2.07;0.90;;;;;;;3.38;100.00;100697.72;5004185;28;20211;-71
2022/12/30 06:53:29;;;;;;;2.50;1.10;;;;;;;3.35;100.00;100695.13;4984628;28;20208;-71
2022/12/30 06:55:55;;;;;;;4.17;1.37;;;;;;;3.33;100.00;100706.28;5001899;28;20259;-72
2022/12/30 06:58:22;;;;;;;4.47;1.03;;;;;;;3.29;100.00;100707.09;5004131;28;20205;-71
2022/12/30 07:00:49;;;;;;;1.07;0.70;;;;;;;3.25;100.00;100711.38;5003815;28;20200;-72
2022/12/30 07:03:16;;;;;;;3.67;1.00;;;;;;;3.21;100.00;100719.97;5004896;28;20204;-72
2022/12/30 07:05:42;;;;;;;7.13;1.43;;;;;;;3.18;100.00;100723.41;5006377;28;20201;-72
2022/12/30 07:08:09;;;;;;;4.30;1.10;;;;;;;3.16;100.00;100727.66;4984822;28;20227;-72
2022/12/30 07:10:35;;;;;;;1.60;0.93;;;;;;;3.14;100.00;100724.22;5005910;28;20227;-71
2022/12/30 07:13:02;;;;;;;6.70;1.40;;;;;;;3.10;100.00;100729.38;4984820;28;20487;-72
2022/12/30 07:15:28;;;;;;;4.67;1.23;;;;;;;3.14;100.00;100731.09;5002881;28;20212;-71
2022/12/30 07:17:56;;;;;;;4.37;1.63;;;;;;;3.12;100.00;100735.38;5002667;28;20200;-71
2022/12/30 07:20:23;;;;;;;3.47;2.00;;;;;;;3.15;100.00;100737.94;5000121;28;20689;-71
2022/12/30 07:22:49;;;;;;;6.07;1.87;;;;;;;3.09;100.00;100738.78;5001386;28;20254;-72
2022/12/30 07:25:16;;;;;;;2.17;1.43;;;;;;;3.06;100.00;100743.94;5002699;28;20217;-71
2022/12/30 07:27:42;;;;;;;2.67;1.37;;;;;;;3.05;100.00;100743.91;5003755;28;20209;-71
2022/12/30 07:30:09;;;;;;;3.53;1.30;;;;;;;3.00;100.00;100742.16;5002479;28;20228;-71
2022/12/30 07:32:35;;;;;;;2.13;1.17;;;;;;;2.99;100.00;100743.03;5000858;28;20205;-71
2022/12/30 07:35:07;;;;;;;3.80;1.23;;;;;;;2.98;100.00;100745.59;4998822;28;20197;-71
2022/12/30 07:37:33;;;;;;;2.30;1.17;;;;;;;2.99;100.00;100749.88;5001324;28;20228;-71
2022/12/30 07:40:00;;;;;;;3.47;1.20;;;;;;;2.97;100.00;100759.31;4997869;28;20247;-71
2022/12/30 07:42:28;;;;;;;6.33;1.40;;;;;;;2.89;100.00;100767.00;5002038;28;20502;-71
2022/12/30 07:44:54;;;;;;;2.90;1.10;;;;;;;2.90;100.00;100773.84;5009353;28;20197;-72
2022/12/30 07:47:21;;;;;;;2.93;1.40;;;;;;;2.89;100.00;100776.44;5012600;28;20201;-71
2022/12/30 07:49:47;;;;;;;2.30;1.00;;;;;;;2.89;100.00;100774.72;4987926;28;20231;-72
2022/12/30 07:52:15;;;;;;;1.87;1.03;;;;;;;2.87;100.00;100785.84;5006449;28;20196;-71
2022/12/30 07:54:41;;;;;;;3.23;1.20;;;;;;;2.99;100.00;100781.66;5010734;28;20205;-71
2022/12/30 07:57:07;;;;;;;3.33;1.53;;;;;;;3.05;100.00;100793.72;5008865;28;20580;-71
2022/12/30 07:59:34;;;;;;;7.50;1.53;;;;;;;3.00;100.00;100803.13;5005174;28;20224;-71
2022/12/30 08:02:00;;;;;;;3.53;1.20;;;;;;;3.05;100.00;100796.31;5006645;28;20211;-71
2022/12/30 08:04:27;;;;;;;1.40;0.80;;;;;;;3.07;100.00;100799.75;4998886;28;20255;-72
2022/12/30 08:06:54;;;;;;;5.13;1.50;;;;;;;3.02;100.00;100806.56;5006848;28;20204;-71
2022/12/30 08:09:21;;;;;;;2.63;1.03;;;;;;;3.05;100.00;100809.19;5004785;28;20228;-71
2022/12/30 08:11:48;;;;;;;1.97;1.10;;;;;;;3.02;100.00;100806.56;5004121;28;20549;-71
2022/12/30 08:14:14;;;;;;;3.07;1.17;;;;;;;3.06;100.00;100812.63;5000960;28;20200;-71
2022/12/30 08:16:41;;;;;;;6.73;1.30;;;;;;;3.16;100.00;100812.69;5003064;28;20220;-71
2022/12/30 08:19:07;;;;;;;3.50;1.40;;;;;;;3.20;100.00;100799.00;5007510;28;20224;-71
2022/12/30 08:21:33;;;;;;;2.43;1.97;;;;;;;3.28;100.00;100801.59;5001891;28;20200;-71
2022/12/30 08:24:00;;;;;;;1.70;0.80;;;;;;;3.39;100.00;100801.69;5010166;28;20267;-72
2022/12/30 08:26:30;;;;;;;4.57;1.17;;;;;;;3.48;100.00;100809.47;4998112;28;20204;-71
2022/12/30 08:28:57;;;;;;;5.40;1.10;;;;;;;3.57;100.00;100808.66;5003836;28;20228;-72
2022/12/30 08:31:26;;;;;;;4.20;1.27;;;;;;;3.60;100.00;100819.84;5004987;28;20565;-71
2022/12/30 08:33:53;;;;;;;4.33;1.10;;;;;;;3.67;100.00;100819.88;5002301;28;20862;-72
2022/12/30 08:36:23;;;;;;;0.87;0.80;;;;;;;3.69;100.00;100816.44;5007554;28;20223;-72
2022/12/30 08:38:51;;;;;;;5.57;1.50;;;;;;;3.78;100.00;100825.94;5004783;28;20213;-71
2022/12/30 08:41:20;;;;;;;2.83;1.10;;;;;;;3.78;100.00;100824.25;5004234;28;20211;-72
2022/12/30 08:43:49;;;;;;;7.27;0.83;;;;;;;3.82;100.00;100824.25;5008297;28;20204;-72
2022/12/30 08:46:16;;;;;;;2.30;1.10;;;;;;;3.86;100.00;100823.44;5005449;28;20196;-72
2022/12/30 08:48:43;;;;;;;4.47;1.10;;;;;;;3.96;100.00;100827.78;5000265;28;20234;-71
2022/12/30 08:51:10;;;;;;;4.63;1.20;;;;;;;3.97;100.00;100824.31;5000784;28;20209;-72
2022/12/30 08:53:39;;;;;;;7.77;1.70;;;;;;;4.03;100.00;100826.94;5001378;28;20693;-71
2022/12/30 08:56:08;;;;;;;4.83;1.30;;;;;;;4.07;100.00;100828.66;4999047;28;20559;-71
2022/12/30 08:58:35;;;;;;;4.47;1.30;;;;;;;4.09;100.00;100826.09;5003773;28;20220;-72
2022/12/30 09:01:09;;;;;;;3.33;1.40;;;;;;;4.09;100.00;100831.25;5000754;28;20583;-72
2022/12/30 09:03:37;;;;;;;2.60;1.10;;;;;;;4.14;100.00;100821.81;5002173;28;20193;-72
2022/12/30 09:06:03;;;;;;;4.00;1.20;;;;;;;4.20;100.00;100829.56;5001119;28;20201;-72
2022/12/30 09:08:30;;;;;;;2.87;1.10;;;;;;;4.25;100.00;100835.59;5002803;28;20200;-72
2022/12/30 09:10:58;;;;;;;5.67;1.50;;;;;;;4.28;100.00;100842.53;5001539;28;20200;-72
2022/12/30 09:13:24;;;;;;;5.20;1.60;;;;;;;4.32;100.00;100841.66;5006060;28;20202;-71
2022/12/30 09:15:51;;;;;;;4.53;1.07;;;;;;;4.33;100.00;100849.41;5006670;28;20681;-71
2022/12/30 09:18:18;;;;;;;7.93;1.27;;;;;;;4.39;100.00;100837.38;4999935;28;20217;-71
2022/12/30 09:20:45;;;;;;;5.33;1.23;;;;;;;4.44;100.00;100843.41;5003747;28;20195;-72
2022/12/30 09:23:11;;;;;;;4.27;1.40;;;;;;;4.52;100.00;100840.00;5003049;28;20721;-72
2022/12/30 09:25:38;;;;;;;3.93;1.20;;;;;;;4.62;100.00;100837.44;5004343;28;20205;-72
2022/12/30 09:28:04;;;;;;;5.07;1.50;;;;;;;4.63;100.00;100839.16;5000698;28;20633;-72
2022/12/30 09:30:31;;;;;;;2.00;1.00;;;;;;;4.63;100.00;100828.84;5006377;28;20249;-72
2022/12/30 09:32:57;;;;;;;5.07;1.80;;;;;;;4.68;100.00;100833.13;5004279;28;20220;-72
2022/12/30 09:35:25;;;;;;;4.77;1.50;;;;;;;4.74;100.00;100833.13;5004780;28;20214;-72
2022/12/30 09:37:51;;;;;;;1.93;1.00;;;;;;;4.80;100.00;100826.25;5003139;28;20414;-72
2022/12/30 09:40:21;;;;;;;1.50;1.10;;;;;;;4.81;100.00;100839.16;4987715;28;20721;-72
2022/12/30 09:45:41;;;;;;;2.13;1.20;;;;;;;4.91;100.00;100835.75;4994585;28;20204;-72
2022/12/30 09:48:15;;;;;;;7.07;1.30;;;;;;;5.01;100.00;100836.59;4999644;28;20279;-71
2022/12/30 09:50:46;;;;;;;5.60;1.33;;;;;;;5.16;100.00;100838.31;5000992;28;20931;-71
2022/12/30 09:53:20;;;;;;;4.57;1.77;;;;;;;5.27;100.00;100840.91;4996978;28;20208;-72
2022/12/30 09:55:50;;;;;;;2.13;1.10;;;;;;;5.27;100.00;100834.00;4999788;28;20729;-72
2022/12/30 09:58:23;;;;;;;7.87;1.50;;;;;;;5.32;100.00;100834.00;5006107;28;20224;-72
2022/12/30 10:00:53;;;;;;;5.13;1.27;;;;;;;5.32;100.00;100834.00;5003998;28;20201;-72
2022/12/30 10:03:24;;;;;;;2.90;0.93;;;;;;;5.42;100.00;100838.31;5000460;28;20212;-71
2022/12/30 10:06:03;;;;;;;3.33;1.20;;;;;;;5.50;100.00;100838.28;4978795;28;20815;-72
2022/12/30 10:08:40;;;;;;;5.27;1.30;;;;;;;5.58;100.00;100833.97;4993606;28;20200;-72
2022/12/30 10:11:26;;;;;;;3.53;1.20;;;;;;;5.67;100.00;100844.28;4996146;28;20593;-72
2022/12/30 10:14:03;;;;;;;5.80;1.30;;;;;;;5.73;100.00;100835.63;4998252;28;20914;-72
2022/12/30 10:16:45;;;;;;;4.23;1.10;;;;;;;5.78;100.00;100831.31;4999313;28;20284;-71
2022/12/30 10:19:21;;;;;;;2.57;1.20;;;;;;;5.83;100.00;100826.97;5003404;28;20705;-71
2022/12/30 10:21:58;;;;;;;3.60;1.10;;;;;;;5.91;100.00;100831.25;4999299;28;20192;-72
2022/12/30 10:24:37;;;;;;;1.97;0.50;;;;;;;5.90;100.00;100820.06;4998312;28;21123;-72
2022/12/30 10:27:10;;;;;;;2.87;1.00;;;;;;;5.95;100.00;100827.81;4998004;28;20214;-71
2022/12/30 10:29:38;;;;;;;2.47;1.20;;;;;;;6.05;100.00;100826.94;5004064;28;20660;-72
2022/12/30 10:32:17;;;;;;;1.87;0.90;;;;;;;6.10;100.00;100829.50;4998236;28;20200;-71
2022/12/30 10:34:45;;;;;;;3.07;0.80;;;;;;;6.19;100.00;100827.75;5004833;28;20196;-72
2022/12/30 10:37:18;;;;;;;2.33;1.07;;;;;;;6.25;100.00;100816.50;4999147;28;20273;-71
2022/12/30 10:39:48;;;;;;;2.17;1.17;;;;;;;6.24;100.00;100813.06;5004576;28;20232;-72
2022/12/30 10:42:27;;;;;;;3.80;1.10;;;;;;;6.28;100.00;100810.41;5005313;28;20204;-72
2022/12/30 10:45:07;;;;;;;0.90;0.73;;;;;;;6.29;100.00;100801.81;5004042;28;20208;-72
2022/12/30 10:47:45;;;;;;;3.90;0.97;;;;;;;6.33;100.00;100795.72;5003713;28;20192;-71
2022/12/30 10:50:22;;;;;;;3.53;0.90;;;;;;;6.39;100.00;100788.78;5005610;28;20216;-71
2022/12/30 10:52:51;;;;;;;4.03;1.07;;;;;;;6.43;100.00;100782.69;5005169;28;20200;-72
2022/12/30 10:55:25;;;;;;;4.83;0.90;;;;;;;6.44;100.00;100781.84;5004393;28;20770;-72
2022/12/30 10:57:57;;;;;;;1.63;0.90;;;;;;;6.47;100.00;100778.34;5000304;28;20246;-72
2022/12/30 11:00:24;;;;;;;1.30;0.83;;;;;;;6.52;100.00;100776.59;4996737;28;20637;-72
2022/12/30 11:02:55;;;;;;;2.17;0.70;;;;;;;6.56;100.00;100769.66;5002733;28;20677;-72
2022/12/30 11:05:34;;;;;;;4.57;1.10;;;;;;;6.64;100.00;100768.75;5003629;28;20200;-72
2022/12/30 11:08:04;;;;;;;2.07;0.97;;;;;;;6.68;100.00;100766.97;5001281;28;20363;-71
2022/12/30 11:10:31;;;;;;;1.93;1.10;;;;;;;6.73;100.00;100769.53;5008410;28;20220;-71
2022/12/30 11:15:56;;;;;;;2.07;0.90;;;;;;;6.67;100.00;100765.28;5001406;28;20192;-71
2022/12/30 11:18:27;;;;;;;2.37;1.03;;;;;;;6.74;100.00;100766.94;5003719;28;20776;-71
2022/12/30 11:20:55;;;;;;;2.13;0.60;;;;;;;6.72;100.00;100762.63;4998571;28;20200;-71
2022/12/30 11:23:29;;;;;;;4.53;1.30;;;;;;;6.80;100.00;100773.81;5003075;28;20719;-71
2022/12/30 11:25:56;;;;;;;3.60;1.00;;;;;;;6.81;100.00;100763.44;5002541;28;20211;-72
2022/12/30 11:28:26;;;;;;;2.13;0.90;;;;;;;6.80;100.00;100758.25;5004931;28;20282;-72
2022/12/30 11:33:25;;;;;;;4.43;0.73;;;;;;;6.92;100.00;100757.31;5005592;28;20212;-70
2022/12/30 11:35:52;;;;;;;3.83;1.17;;;;;;;6.99;100.00;100766.75;5005786;28;20535;-69
2022/12/30 11:38:32;;;;;;;4.93;1.17;;;;;;;6.99;100.00;100765.00;5007689;28;20482;-70
2022/12/30 11:41:19;;;;;;;4.50;0.97;;;;;;;7.04;100.00;100775.34;4996950;28;20220;-70
2022/12/30 11:43:47;;;;;;;4.07;1.53;;;;;;;6.96;100.00;100770.19;5005497;28;20200;-70
2022/12/30 11:46:15;;;;;;;2.57;1.27;;;;;;;6.99;100.00;100770.19;5003123;28;20600;-69
2022/12/30 11:48:47;;;;;;;3.50;1.30;;;;;;;7.00;100.00;100765.84;5002822;28;20197;-69
2022/12/30 11:51:20;;;;;;;2.27;0.80;;;;;;;7.05;100.00;100766.66;5004060;28;20309;-70
2022/12/30 11:53:49;;;;;;;4.90;1.27;;;;;;;7.04;100.00;100758.94;4996713;28;20205;-70
2022/12/30 11:56:21;;;;;;;2.50;1.23;;;;;;;7.07;100.00;100757.16;4992969;28;20200;-70
2022/12/30 11:58:48;;;;;;;2.17;1.10;;;;;;;7.10;100.00;100741.56;4991952;28;20276;-70
2022/12/30 12:01:14;;;;;;;4.63;1.00;;;;;;;7.07;100.00;100749.38;4995713;28;20225;-70
2022/12/30 12:03:49;;;;;;;3.87;1.10;;;;;;;7.11;100.00;100745.03;5002277;28;20284;-70
2022/12/30 12:06:16;;;;;;;8.17;1.40;;;;;;;7.16;100.00;100736.31;4999599;28;20201;-70
2022/12/30 12:08:55;;;;;;;2.63;1.10;;;;;;;7.22;100.00;100734.53;5003828;28;20276;-69
2022/12/30 12:11:26;;;;;;;5.07;1.03;;;;;;;7.26;100.00;100728.44;5001155;28;20203;-70
2022/12/30 12:14:02;;;;;;;3.33;1.40;;;;;;;7.28;100.00;100737.94;5003513;28;20199;-70
2022/12/30 12:16:36;;;;;;;1.80;0.90;;;;;;;7.28;100.00;100731.88;5006735;28;20590;-70
2022/12/30 12:19:14;;;;;;;2.93;1.17;;;;;;;7.30;100.00;100732.72;4985407;28;20338;-68
2022/12/30 12:21:43;;;;;;;4.30;1.20;;;;;;;7.28;100.00;100732.75;5005068;28;20206;-69
2022/12/30 12:24:20;;;;;;;1.63;0.90;;;;;;;7.32;100.00;100736.16;5004692;28;20200;-70
2022/12/30 12:26:53;;;;;;;4.00;1.00;;;;;;;7.33;100.00;100728.34;5004126;28;20194;-69
2022/12/30 12:29:20;;;;;;;3.13;2.00;;;;;;;7.36;100.00;100730.06;5006181;28;20543;-70